createdAt,value
2023-03-02T00:00:47.737Z,94543.47
2023-03-02T00:03:18.374Z,94550.50
2023-03-02T00:05:47.254Z,94549.25
2023-03-02T00:08:17.592Z,94541.47
2023-03-02T00:10:44.497Z,94544.78
2023-03-02T00:13:12.589Z,94551.53
2023-03-02T00:15:39.382Z,94549.13
2023-03-02T00:18:06.100Z,94550.56
2023-03-02T00:20:34.605Z,94544.53
2023-03-02T00:23:01.251Z,94540.50
2023-03-02T00:25:28.807Z,94543.66
2023-03-02T00:27:58.540Z,94542.38
2023-03-02T00:30:25.192Z,94554.91
2023-03-02T00:32:52.058Z,94553.31
2023-03-02T00:35:18.731Z,94542.97
2023-03-02T00:37:45.427Z,94539.22
2023-03-02T00:40:12.439Z,94539.53
2023-03-02T00:42:39.373Z,94541.41
2023-03-02T00:45:07.100Z,94550.59
2023-03-02T00:47:35.381Z,94547.69
2023-03-02T00:50:02.569Z,94541.69
2023-03-02T00:52:33.685Z,94542.00
2023-03-02T00:55:00.251Z,94531.94
2023-03-02T00:57:26.920Z,94536.81
2023-03-02T00:59:53.597Z,94539.41
2023-03-02T01:02:21.780Z,94533.22
2023-03-02T01:04:48.835Z,94540.84
2023-03-02T01:07:18.347Z,94523.16
2023-03-02T01:09:45.828Z,94526.16
2023-03-02T01:12:12.959Z,94528.59
2023-03-02T01:14:44.848Z,94523.81
2023-03-02T01:17:12.321Z,94517.75
2023-03-02T01:19:40.042Z,94511.44
2023-03-02T01:22:07.605Z,94501.38
2023-03-02T01:24:34.150Z,94503.16
2023-03-02T01:27:00.720Z,94492.28
2023-03-02T01:29:27.566Z,94503.09
2023-03-02T01:31:54.316Z,94498.81
2023-03-02T01:34:21.267Z,94494.66
2023-03-02T01:36:47.843Z,94497.97
2023-03-02T01:39:17.528Z,94489.41
2023-03-02T01:41:45.834Z,94489.72
2023-03-02T01:44:39.388Z,94491.78
2023-03-02T01:47:20.861Z,94490.19
2023-03-02T01:49:59.275Z,94490.19
2023-03-02T01:52:27.112Z,94503.44
2023-03-02T01:54:55.893Z,94495.50
2023-03-02T01:57:29.471Z,94493.88
2023-03-02T02:00:08.603Z,94495.16
2023-03-02T02:02:36.693Z,94490.47
2023-03-02T02:05:04.114Z,94490.31
2023-03-02T02:07:31.297Z,94491.78
2023-03-02T02:09:58.184Z,94491.28
2023-03-02T02:12:24.811Z,94481.50
2023-03-02T02:14:51.768Z,94482.34
2023-03-02T02:17:19.630Z,94469.56
2023-03-02T02:19:58.081Z,94474.06
2023-03-02T02:22:46.725Z,94473.31
2023-03-02T02:25:53.231Z,94481.81
2023-03-02T02:28:33.134Z,94478.19
2023-03-02T02:31:26.800Z,94481.81
2023-03-02T02:33:58.087Z,94471.59
2023-03-02T02:36:33.396Z,94468.88
2023-03-02T02:39:04.319Z,94467.69
2023-03-02T02:41:36.446Z,94467.97
2023-03-02T02:44:03.156Z,94461.97
2023-03-02T02:46:29.861Z,94462.97
2023-03-02T02:48:56.714Z,94457.56
2023-03-02T02:51:26.814Z,94466.22
2023-03-02T02:53:59.906Z,94457.00
2023-03-02T02:56:38.355Z,94443.78
2023-03-02T02:59:16.731Z,94447.84
2023-03-02T03:01:44.627Z,94440.84
2023-03-02T03:04:14.074Z,94439.72
2023-03-02T03:06:50.663Z,94439.53
2023-03-02T03:09:17.356Z,94443.16
2023-03-02T03:11:50.537Z,94448.69
2023-03-02T03:14:20.223Z,94442.81
2023-03-02T03:16:48.488Z,94442.41
2023-03-02T03:19:22.946Z,94436.84
2023-03-02T03:21:52.636Z,94435.16
2023-03-02T03:24:19.903Z,94442.06
2023-03-02T03:26:47.128Z,94445.81
2023-03-02T03:29:14.662Z,94442.97
2023-03-02T03:31:41.826Z,94441.41
2023-03-02T03:34:09.178Z,94435.50
2023-03-02T03:36:37.395Z,94447.56
2023-03-02T03:39:05.939Z,94444.56
2023-03-02T03:41:33.215Z,94445.28
2023-03-02T03:44:00.041Z,94443.28
2023-03-02T03:46:27.981Z,94442.97
2023-03-02T03:48:54.696Z,94445.56
2023-03-02T03:51:21.681Z,94458.81
2023-03-02T03:53:59.736Z,94447.97
2023-03-02T03:56:28.163Z,94457.34
2023-03-02T03:59:06.242Z,94437.44
2023-03-02T04:01:39.545Z,94441.81
2023-03-02T04:04:08.019Z,94443.97
2023-03-02T04:06:34.949Z,94440.22
2023-03-02T04:09:04.947Z,94448.28
2023-03-02T04:11:34.346Z,94442.69
2023-03-02T04:14:01.022Z,94433.91
2023-03-02T04:16:28.375Z,94442.38
2023-03-02T04:18:54.942Z,94439.50
2023-03-02T04:21:21.554Z,94437.06
2023-03-02T04:23:48.280Z,94439.38
2023-03-02T04:26:15.126Z,94443.09
2023-03-02T04:28:41.793Z,94448.88
2023-03-02T04:31:08.512Z,94435.94
2023-03-02T04:33:35.293Z,94433.34
2023-03-02T04:36:02.087Z,94428.16
2023-03-02T04:38:29.602Z,94435.22
2023-03-02T04:40:57.888Z,94424.44
2023-03-02T04:43:25.840Z,94428.16
2023-03-02T04:45:54.152Z,94433.63
2023-03-02T04:48:22.117Z,94431.75
2023-03-02T04:50:48.811Z,94440.09
2023-03-02T04:53:15.463Z,94437.19
2023-03-02T04:55:42.539Z,94452.16
2023-03-02T04:58:09.235Z,94454.19
2023-03-02T05:00:36.428Z,94460.09
2023-03-02T05:03:04.150Z,94447.56
2023-03-02T05:05:31.813Z,94444.66
2023-03-02T05:07:58.668Z,94455.63
2023-03-02T05:10:27.241Z,94450.44
2023-03-02T05:12:54.624Z,94459.22
2023-03-02T05:15:22.931Z,94451.06
2023-03-02T05:17:49.609Z,94444.41
2023-03-02T05:20:16.666Z,94442.13
2023-03-02T05:22:43.442Z,94442.13
2023-03-02T05:25:10.351Z,94441.81
2023-03-02T05:27:36.990Z,94435.50
2023-03-02T05:30:07.134Z,94439.22
2023-03-02T05:32:33.814Z,94444.41
2023-03-02T05:35:00.591Z,94443.69
2023-03-02T05:37:27.141Z,94452.47
2023-03-02T05:39:53.720Z,94448.47
2023-03-02T05:42:20.338Z,94446.59
2023-03-02T05:44:47.054Z,94448.16
2023-03-02T05:47:13.732Z,94452.63
2023-03-02T05:49:40.318Z,94449.91
2023-03-02T05:52:06.950Z,94439.53
2023-03-02T05:54:33.510Z,94446.88
2023-03-02T05:57:00.385Z,94451.06
2023-03-02T05:59:26.949Z,94451.06
2023-03-02T06:01:58.718Z,94453.94
2023-03-02T06:04:26.364Z,94452.78
2023-03-02T06:06:52.928Z,94460.56
2023-03-02T06:09:19.571Z,94455.38
2023-03-02T06:11:46.247Z,94451.66
2023-03-02T06:14:12.816Z,94455.06
2023-03-02T06:16:39.516Z,94461.81
2023-03-02T06:19:06.572Z,94462.97
2023-03-02T06:21:33.365Z,94460.69
2023-03-02T06:24:00.079Z,94464.28
2023-03-02T06:26:26.670Z,94470.31
2023-03-02T06:28:54.093Z,94468.75
2023-03-02T06:31:21.533Z,94465.44
2023-03-02T06:33:48.190Z,94471.78
2023-03-02T06:36:16.977Z,94471.34
2023-03-02T06:38:43.758Z,94467.00
2023-03-02T06:41:10.387Z,94469.91
2023-03-02T06:43:37.121Z,94470.63
2023-03-02T06:46:04.185Z,94469.47
2023-03-02T06:48:30.827Z,94473.09
2023-03-02T06:50:58.222Z,94467.19
2023-03-02T06:53:24.926Z,94474.53
2023-03-02T06:55:51.657Z,94477.41
2023-03-02T06:58:18.402Z,94481.88
2023-03-02T07:00:44.979Z,94478.97
2023-03-02T07:03:11.720Z,94481.16
2023-03-02T07:05:38.335Z,94479.53
2023-03-02T07:08:05.359Z,94478.53
2023-03-02T07:10:33.281Z,94482.00
2023-03-02T07:13:00.114Z,94480.94
2023-03-02T07:15:26.693Z,94484.31
2023-03-02T07:17:53.286Z,94487.59
2023-03-02T07:20:19.999Z,94485.13
2023-03-02T07:22:46.601Z,94486.59
2023-03-02T07:25:13.749Z,94488.75
2023-03-02T07:27:40.788Z,94491.63
2023-03-02T07:30:08.414Z,94498.97
2023-03-02T07:32:35.315Z,94497.13
2023-03-02T07:35:02.056Z,94504.06
2023-03-02T07:37:28.646Z,94510.31
2023-03-02T07:39:55.195Z,94507.72
2023-03-02T07:42:21.855Z,94508.34
2023-03-02T07:44:48.497Z,94511.22
2023-03-02T07:47:15.109Z,94511.09
2023-03-02T07:49:41.841Z,94513.81
2023-03-02T07:52:08.441Z,94501.16
2023-03-02T07:54:35.027Z,94513.56
2023-03-02T07:57:01.721Z,94505.38
2023-03-02T07:59:29.187Z,94503.44
2023-03-02T08:01:57.026Z,94503.75
2023-03-02T08:04:24.563Z,94508.38
2023-03-02T08:06:51.482Z,94506.09
2023-03-02T08:09:18.276Z,94511.84
2023-03-02T08:11:45.077Z,94520.63
2023-03-02T08:14:11.895Z,94527.38
2023-03-02T08:16:39.568Z,94525.81
2023-03-02T08:19:06.953Z,94529.41
2023-03-02T08:21:34.036Z,94530.13
2023-03-02T08:24:00.853Z,94527.13
2023-03-02T08:26:27.537Z,94541.09
2023-03-02T08:28:54.307Z,94535.81
2023-03-02T08:31:20.997Z,94540.25
2023-03-02T08:33:47.730Z,94529.47
2023-03-02T08:36:17.433Z,94530.47
2023-03-02T08:38:45.720Z,94536.53
2023-03-02T08:41:21.148Z,94534.34
2023-03-02T08:43:48.133Z,94535.31
2023-03-02T08:46:17.581Z,94539.22
2023-03-02T08:48:44.621Z,94531.34
2023-03-02T08:51:17.108Z,94529.88
2023-03-02T08:53:46.425Z,94544.44
2023-03-02T08:56:35.420Z,94523.69
2023-03-02T08:59:05.570Z,94537.84
2023-03-02T09:01:34.914Z,94533.22
2023-03-02T09:04:02.939Z,94536.94
2023-03-02T09:06:31.575Z,94537.97
2023-03-02T09:08:58.692Z,94536.84
2023-03-02T09:11:25.727Z,94543.44
2023-03-02T09:13:53.055Z,94547.91
2023-03-02T09:16:20.391Z,94545.63
2023-03-02T09:18:48.119Z,94537.53
2023-03-02T09:21:14.900Z,94541.44
2023-03-02T09:23:41.947Z,94549.09
2023-03-02T09:26:08.763Z,94549.81
2023-03-02T09:28:36.911Z,94549.09
2023-03-02T09:31:05.901Z,94546.34
2023-03-02T09:33:33.433Z,94547.34
2023-03-02T09:36:01.563Z,94552.84
2023-03-02T09:38:28.183Z,94553.59
2023-03-02T09:41:13.339Z,94556.00
2023-03-02T09:43:48.983Z,94558.31
2023-03-02T09:46:20.863Z,94561.94
2023-03-02T09:48:53.388Z,94566.66
2023-03-02T09:51:35.136Z,94571.03
2023-03-02T09:54:14.198Z,94563.50
2023-03-02T09:56:48.491Z,94575.94
2023-03-02T09:59:17.886Z,94579.38
2023-03-02T10:01:51.231Z,94575.94
2023-03-02T10:04:30.286Z,94578.66
2023-03-02T10:07:13.772Z,94577.94
2023-03-02T10:09:41.279Z,94584.13
2023-03-02T10:12:34.662Z,94580.81
2023-03-02T10:15:26.207Z,94584.84
2023-03-02T10:18:02.833Z,94582.41
2023-03-02T10:20:43.033Z,94586.84
2023-03-02T10:23:15.632Z,94580.97
2023-03-02T10:25:50.654Z,94588.47
2023-03-02T10:28:17.257Z,94586.03
2023-03-02T10:30:47.174Z,94587.78
2023-03-02T10:33:18.030Z,94588.06
2023-03-02T10:35:49.925Z,94588.38
2023-03-02T10:38:22.972Z,94599.31
2023-03-02T10:41:00.168Z,94596.84
2023-03-02T10:43:41.618Z,94599.03
2023-03-02T10:46:10.882Z,94599.63
2023-03-02T10:49:22.974Z,94603.22
2023-03-02T10:51:59.624Z,94600.00
2023-03-02T10:54:28.216Z,94596.44
2023-03-02T10:57:01.359Z,94608.41
2023-03-02T10:59:47.049Z,94601.53
2023-03-02T11:02:19.158Z,94598.75
2023-03-02T11:04:45.874Z,94608.88
2023-03-02T11:07:19.378Z,94610.31
2023-03-02T11:10:07.415Z,94605.56
2023-03-02T11:12:36.849Z,94602.63
2023-03-02T11:15:18.618Z,94604.25
2023-03-02T11:17:48.931Z,94605.13
2023-03-02T11:20:25.047Z,94603.97
2023-03-02T11:23:03.118Z,94607.47
2023-03-02T11:25:35.601Z,94607.03
2023-03-02T11:28:09.966Z,94601.97
2023-03-02T11:30:43.432Z,94601.97
2023-03-02T11:33:25.516Z,94602.16
2023-03-02T11:35:59.922Z,94598.84
2023-03-02T11:38:32.703Z,94592.19
2023-03-02T11:41:17.323Z,94591.03
2023-03-02T11:43:44.021Z,94596.25
2023-03-02T11:46:22.327Z,94594.94
2023-03-02T11:48:53.171Z,94594.38
2023-03-02T11:51:24.000Z,94595.66
2023-03-02T11:53:57.907Z,94597.94
2023-03-02T11:56:25.781Z,94606.31
2023-03-02T11:59:17.784Z,94608.31
2023-03-02T12:01:48.001Z,94613.22
2023-03-02T12:04:35.021Z,94608.91
2023-03-02T12:07:04.750Z,94606.91
2023-03-02T12:09:37.476Z,94601.59
2023-03-02T12:12:19.147Z,94593.91
2023-03-02T12:14:45.866Z,94594.78
2023-03-02T12:17:27.530Z,94592.88
2023-03-02T12:20:20.249Z,94592.59
2023-03-02T12:22:46.866Z,94589.69
2023-03-02T12:25:19.440Z,94591.91
2023-03-02T12:27:51.119Z,94592.03
2023-03-02T12:30:27.043Z,94590.16
2023-03-02T12:33:02.821Z,94591.28
2023-03-02T12:35:32.679Z,94596.06
2023-03-02T12:38:33.951Z,94591.31
2023-03-02T12:41:21.283Z,94594.03
2023-03-02T12:44:24.565Z,94588.53
2023-03-02T12:46:52.052Z,94590.69
2023-03-02T12:49:27.390Z,94596.75
2023-03-02T12:51:57.753Z,94584.50
2023-03-02T12:54:30.242Z,94590.78
2023-03-02T12:57:19.165Z,94583.16
2023-03-02T12:59:58.363Z,94589.94
2023-03-02T13:02:34.744Z,94595.22
2023-03-02T13:05:08.120Z,94593.19
2023-03-02T13:07:39.289Z,94592.00
2023-03-02T13:10:36.146Z,94589.59
2023-03-02T13:13:14.796Z,94590.56
2023-03-02T13:15:52.667Z,94590.03
2023-03-02T13:18:21.419Z,94586.41
2023-03-02T13:20:49.848Z,94586.06
2023-03-02T13:23:17.706Z,94574.25
2023-03-02T13:25:48.640Z,94576.53
2023-03-02T13:28:36.700Z,94573.34
2023-03-02T13:31:17.592Z,94582.25
2023-03-02T13:33:46.073Z,94583.53
2023-03-02T13:36:23.708Z,94578.00
2023-03-02T13:38:53.269Z,94575.72
2023-03-02T13:41:24.191Z,94568.31
2023-03-02T13:43:50.887Z,94571.78
2023-03-02T13:46:17.433Z,94568.31
2023-03-02T13:49:07.528Z,94568.59
2023-03-02T13:51:39.998Z,94567.59
2023-03-02T13:54:27.835Z,94568.16
2023-03-02T13:56:56.900Z,94575.53
2023-03-02T13:59:23.797Z,94572.28
2023-03-02T14:01:50.719Z,94571.22
2023-03-02T14:04:23.509Z,94562.09
2023-03-02T14:06:51.490Z,94571.00
2023-03-02T14:09:18.582Z,94573.19
2023-03-02T14:11:48.936Z,94574.38
2023-03-02T14:14:22.742Z,94581.44
2023-03-02T14:16:49.865Z,94578.00
2023-03-02T14:19:18.425Z,94586.22
2023-03-02T14:21:46.565Z,94581.56
2023-03-02T14:24:13.241Z,94580.59
2023-03-02T14:26:46.407Z,94574.06
2023-03-02T14:29:26.756Z,94572.91
2023-03-02T14:31:57.816Z,94577.28
2023-03-02T14:34:24.420Z,94576.63
2023-03-02T14:36:53.956Z,94580.28
2023-03-02T14:39:23.758Z,94573.19
2023-03-02T14:41:54.164Z,94567.81
2023-03-02T14:44:22.108Z,94568.56
2023-03-02T14:46:49.049Z,94568.72
2023-03-02T14:49:15.643Z,94572.63
2023-03-02T14:51:45.152Z,94568.00
2023-03-02T14:54:18.161Z,94574.19
2023-03-02T14:56:45.399Z,94571.47
2023-03-02T14:59:15.504Z,94568.47
2023-03-02T15:01:44.578Z,94577.09
2023-03-02T15:04:11.326Z,94573.69
2023-03-02T15:06:40.501Z,94573.69
2023-03-02T15:09:08.515Z,94567.22
2023-03-02T15:11:35.562Z,94576.94
2023-03-02T15:14:02.630Z,94568.31
2023-03-02T15:16:29.278Z,94575.56
2023-03-02T15:18:58.729Z,94576.38
2023-03-02T15:21:25.640Z,94571.16
2023-03-02T15:23:52.273Z,94572.28
2023-03-02T15:26:19.080Z,94577.63
2023-03-02T15:28:49.173Z,94573.28
2023-03-02T15:31:17.178Z,94574.41
2023-03-02T15:33:45.585Z,94577.47
2023-03-02T15:36:13.367Z,94580.53
2023-03-02T15:38:40.386Z,94571.63
2023-03-02T15:41:08.509Z,94574.97
2023-03-02T15:43:35.070Z,94573.88
2023-03-02T15:46:02.408Z,94578.31
2023-03-02T15:48:29.945Z,94579.19
2023-03-02T15:51:01.962Z,94583.59
2023-03-02T15:53:29.885Z,94579.97
2023-03-02T15:55:57.022Z,94582.31
2023-03-02T15:58:23.971Z,94582.41
2023-03-02T16:00:53.146Z,94577.22
2023-03-02T16:03:19.740Z,94583.13
2023-03-02T16:05:46.631Z,94583.88
2023-03-02T16:08:13.208Z,94577.63
2023-03-02T16:10:42.817Z,94588.59
2023-03-02T16:13:11.840Z,94585.94
2023-03-02T16:15:40.229Z,94586.03
2023-03-02T16:18:11.264Z,94582.25
2023-03-02T16:20:39.144Z,94587.31
2023-03-02T16:23:07.726Z,94587.56
2023-03-02T16:25:43.387Z,94593.06
2023-03-02T16:28:11.920Z,94590.44
2023-03-02T16:30:39.113Z,94587.31
2023-03-02T16:33:08.145Z,94586.13
2023-03-02T16:35:36.712Z,94590.34
2023-03-02T16:38:04.663Z,94595.72
2023-03-02T16:40:31.951Z,94598.38
2023-03-02T16:42:58.841Z,94598.94
2023-03-02T16:45:26.951Z,94604.59
2023-03-02T16:47:53.687Z,94603.31
2023-03-02T16:50:20.520Z,94605.22
2023-03-02T16:52:47.025Z,94603.94
2023-03-02T16:55:17.320Z,94609.47
2023-03-02T16:57:44.700Z,94611.09
2023-03-02T17:00:14.921Z,94610.88
2023-03-02T17:02:41.830Z,94620.28
2023-03-02T17:05:09.144Z,94619.31
2023-03-02T17:07:35.962Z,94617.16
2023-03-02T17:10:04.384Z,94621.72
2023-03-02T17:12:30.943Z,94633.25
2023-03-02T17:14:57.536Z,94626.59
2023-03-02T17:17:24.098Z,94628.91
2023-03-02T17:19:50.737Z,94626.31
2023-03-02T17:22:17.401Z,94637.59
2023-03-02T17:24:43.963Z,94645.84
2023-03-02T17:27:22.763Z,94650.97
2023-03-02T17:29:52.046Z,94648.88
2023-03-02T17:32:19.181Z,94647.06
2023-03-02T17:34:46.236Z,94653.78
2023-03-02T17:37:12.849Z,94651.81
2023-03-02T17:39:39.488Z,94653.41
2023-03-02T17:42:06.783Z,94653.25
2023-03-02T17:44:34.613Z,94655.03
2023-03-02T17:47:05.415Z,94650.97
2023-03-02T17:49:32.150Z,94666.00
2023-03-02T17:51:58.771Z,94664.56
2023-03-02T17:54:25.393Z,94664.13
2023-03-02T17:56:52.007Z,94665.31
2023-03-02T17:59:18.654Z,94664.72
2023-03-02T18:01:45.223Z,94663.72
2023-03-02T18:04:11.973Z,94671.53
2023-03-02T18:06:38.718Z,94671.56
2023-03-02T18:09:05.772Z,94670.78
2023-03-02T18:11:32.624Z,94671.53
2023-03-02T18:13:59.331Z,94673.28
2023-03-02T18:16:28.424Z,94674.16
2023-03-02T18:18:56.330Z,94675.28
2023-03-02T18:21:23.091Z,94682.81
2023-03-02T18:23:49.784Z,94683.97
2023-03-02T18:26:16.663Z,94681.38
2023-03-02T18:28:43.556Z,94681.38
2023-03-02T18:31:12.710Z,94681.38
2023-03-02T18:33:39.389Z,94681.06
2023-03-02T18:36:06.351Z,94684.09
2023-03-02T18:38:33.994Z,94673.84
2023-03-02T18:41:03.530Z,94682.19
2023-03-02T18:43:34.812Z,94684.78
2023-03-02T18:46:04.258Z,94688.00
2023-03-02T18:48:32.055Z,94692.03
2023-03-02T18:50:59.065Z,94681.78
2023-03-02T18:53:26.944Z,94678.44
2023-03-02T18:55:56.725Z,94681.91
2023-03-02T18:58:24.840Z,94683.50
2023-03-02T19:00:53.421Z,94686.19
2023-03-02T19:03:20.507Z,94682.91
2023-03-02T19:05:47.133Z,94681.72
2023-03-02T19:08:13.825Z,94686.47
2023-03-02T19:10:42.296Z,94685.75
2023-03-02T19:13:11.704Z,94693.97
2023-03-02T19:15:42.269Z,94686.06
2023-03-02T19:18:13.225Z,94687.34
2023-03-02T19:20:39.895Z,94693.66
2023-03-02T19:23:06.473Z,94696.97
2023-03-02T19:25:33.087Z,94692.53
2023-03-02T19:27:59.807Z,94696.25
2023-03-02T19:30:27.349Z,94707.81
2023-03-02T19:32:54.427Z,94703.78
2023-03-02T19:35:24.249Z,94704.19
2023-03-02T19:37:50.905Z,94714.28
2023-03-02T19:40:19.655Z,94705.47
2023-03-02T19:42:47.498Z,94711.09
2023-03-02T19:45:23.676Z,94719.13
2023-03-02T19:47:50.473Z,94721.88
2023-03-02T19:50:19.395Z,94724.75
2023-03-02T19:52:46.497Z,94724.47
2023-03-02T19:55:14.752Z,94723.75
2023-03-02T19:57:43.267Z,94723.44
2023-03-02T20:00:15.269Z,94727.31
2023-03-02T20:02:42.049Z,94728.03
2023-03-02T20:05:10.506Z,94724.72
2023-03-02T20:07:40.476Z,94719.94
2023-03-02T20:10:10.180Z,94724.13
2023-03-02T20:12:37.281Z,94723.94
2023-03-02T20:15:06.465Z,94726.25
2023-03-02T20:17:33.880Z,94731.88
2023-03-02T20:20:01.411Z,94724.81
2023-03-02T20:22:28.333Z,94729.94
2023-03-02T20:24:55.171Z,94731.69
2023-03-02T20:27:22.356Z,94737.84
2023-03-02T20:29:49.484Z,94721.00
2023-03-02T20:32:16.409Z,94732.13
2023-03-02T20:34:43.660Z,94729.31
2023-03-02T20:37:13.610Z,94727.38
2023-03-02T20:39:42.468Z,94736.50
2023-03-02T20:42:10.131Z,94735.38
2023-03-02T20:44:37.409Z,94732.34
2023-03-02T20:47:08.714Z,94740.13
2023-03-02T20:49:37.357Z,94733.09
2023-03-02T20:52:06.129Z,94732.03
2023-03-02T20:54:37.510Z,94734.34
2023-03-02T20:57:05.711Z,94733.31
2023-03-02T20:59:32.461Z,94739.97
2023-03-02T21:01:59.284Z,94729.41
2023-03-02T21:04:26.386Z,94735.19
2023-03-02T21:06:53.207Z,94735.19
2023-03-02T21:09:20.207Z,94734.41
2023-03-02T21:11:47.072Z,94735.69
2023-03-02T21:14:14.295Z,94731.38
2023-03-02T21:16:43.706Z,94735.63
2023-03-02T21:19:15.150Z,94732.63
2023-03-02T21:21:42.899Z,94736.81
2023-03-02T21:24:12.571Z,94733.25
2023-03-02T21:26:41.685Z,94730.34
2023-03-02T21:29:09.764Z,94731.63
2023-03-02T21:31:36.543Z,94734.94
2023-03-02T21:34:03.672Z,94735.91
2023-03-02T21:36:30.584Z,94729.22
2023-03-02T21:38:57.622Z,94735.50
2023-03-02T21:41:24.703Z,94731.31
2023-03-02T21:43:51.534Z,94730.50
2023-03-02T21:46:21.929Z,94730.06
2023-03-02T21:48:50.444Z,94731.94
2023-03-02T21:51:17.627Z,94730.06
2023-03-02T21:53:44.264Z,94734.13
2023-03-02T21:56:20.684Z,94732.25
2023-03-02T21:58:52.942Z,94729.66
2023-03-02T22:01:20.887Z,94731.94
2023-03-02T22:03:47.708Z,94730.16
2023-03-02T22:06:26.200Z,94726.13
2023-03-02T22:08:53.617Z,94725.00
2023-03-02T22:11:24.247Z,94731.31
2023-03-02T22:13:53.195Z,94728.16
2023-03-02T22:16:23.104Z,94731.78
2023-03-02T22:18:54.774Z,94725.00
2023-03-02T22:21:27.485Z,94725.72
2023-03-02T22:23:58.396Z,94722.13
2023-03-02T22:26:24.978Z,94720.59
2023-03-02T22:28:51.933Z,94716.03
2023-03-02T22:31:22.580Z,94722.56
2023-03-02T22:33:49.925Z,94722.84
2023-03-02T22:36:27.937Z,94724.28
2023-03-02T22:38:56.929Z,94721.75
2023-03-02T22:41:23.738Z,94722.38
2023-03-02T22:43:52.946Z,94725.88
2023-03-02T22:46:21.872Z,94722.97
2023-03-02T22:48:52.880Z,94724.00
2023-03-02T22:51:27.888Z,94719.97
2023-03-02T22:53:58.078Z,94728.72
2023-03-02T22:56:43.784Z,94725.31
2023-03-02T22:59:26.434Z,94725.31
2023-03-02T23:02:25.692Z,94726.75
2023-03-02T23:04:52.346Z,94727.47
2023-03-02T23:07:20.974Z,94719.69
2023-03-02T23:09:49.031Z,94728.63
2023-03-02T23:12:33.463Z,94723.03
2023-03-02T23:15:00.137Z,94715.25
2023-03-02T23:17:38.819Z,94716.69
2023-03-02T23:20:09.367Z,94721.03
2023-03-02T23:22:36.701Z,94718.44
2023-03-02T23:25:03.662Z,94724.78
2023-03-02T23:27:30.385Z,94718.03
2023-03-02T23:29:57.010Z,94724.66
2023-03-02T23:32:23.781Z,94722.47
2023-03-02T23:34:50.437Z,94725.38
2023-03-02T23:37:16.993Z,94728.69
2023-03-02T23:39:46.008Z,94720.91
2023-03-02T23:42:13.000Z,94725.69
2023-03-02T23:44:39.537Z,94721.94
2023-03-02T23:47:06.108Z,94723.41
2023-03-02T23:49:32.678Z,94721.53
2023-03-02T23:51:59.411Z,94717.78
2023-03-02T23:54:25.966Z,94723.41
2023-03-02T23:56:52.542Z,94721.84
2023-03-02T23:59:19.284Z,94715.94
